Decorah, Iowa
Current Conditions -  °F | °C
As of 12:35 AM on Friday 31 Oct 2014 (Local Time) from KDEH Reporting Station
Overcast Overcast  
Wind Chill: 30°   Ceiling: 4400
Heat Index: 39°   Visibility: 10mi
Dew Point: 27°   Wind: 20mph
Humidity: 61%   Direction: 350°N
Pressure: 30.2"   Gusts: 38mph
Location:  43.3°N, 91.79°W
Report Text: KDEH 310535Z AUTO 35017G33KT 320V020 10SM OVC044 04/M03 A3020 RMK AO2
Loading
Personal Weather Stations






























Interactive Weather Map
Tropical Storm Tracking
New forecast layout! Learn more

10-Day Weather Forecast

Advertisements
Track Severe Weather on mobile